createdAt,value
2022-10-07T00:01:20.759Z,16.42
2022-10-07T00:03:51.109Z,16.08
2022-10-07T00:06:21.589Z,17.45
2022-10-07T00:08:52.302Z,13.40
2022-10-07T00:11:23.402Z,14.32
2022-10-07T00:13:54.224Z,12.30
2022-10-07T00:16:25.600Z,13.48
2022-10-07T00:18:57.868Z,15.88
2022-10-07T00:21:28.396Z,16.65
2022-10-07T00:23:58.134Z,15.65
2022-10-07T00:26:29.255Z,12.93
2022-10-07T00:28:58.472Z,17.70
2022-10-07T00:31:29.897Z,18.02
2022-10-07T00:34:00.533Z,15.18
2022-10-07T00:36:30.850Z,15.07
2022-10-07T00:39:01.394Z,17.65
2022-10-07T00:41:32.948Z,17.23
2022-10-07T00:44:01.600Z,14.30
2022-10-07T00:46:35.673Z,16.30
2022-10-07T00:49:09.384Z,16.48
2022-10-07T00:51:38.883Z,19.40
2022-10-07T00:54:13.819Z,15.32
2022-10-07T00:56:43.744Z,18.02
2022-10-07T00:59:13.988Z,12.23
2022-10-07T01:01:43.194Z,9.93
2022-10-07T01:04:15.335Z,14.35
2022-10-07T01:06:46.254Z,16.15
2022-10-07T01:09:16.012Z,22.25
2022-10-07T01:11:57.583Z,16.13
2022-10-07T01:14:43.613Z,15.10
2022-10-07T01:17:18.952Z,13.35
2022-10-07T01:20:13.389Z,12.05
2022-10-07T01:22:51.528Z,16.48
2022-10-07T01:25:34.181Z,13.90
2022-10-07T01:28:09.373Z,20.00
2022-10-07T01:30:42.849Z,12.52
2022-10-07T01:33:17.582Z,16.00
2022-10-07T01:35:48.911Z,13.73
2022-10-07T01:38:20.858Z,16.13
2022-10-07T01:40:54.814Z,12.80
2022-10-07T01:43:25.775Z,13.63
2022-10-07T01:45:56.511Z,13.60
2022-10-07T01:48:25.468Z,18.02
2022-10-07T01:50:57.536Z,15.73
2022-10-07T01:53:40.508Z,15.07
2022-10-07T01:56:24.550Z,19.63
2022-10-07T01:59:23.431Z,14.48
2022-10-07T02:02:04.522Z,13.80
2022-10-07T02:04:44.980Z,14.35
2022-10-07T02:07:26.223Z,19.35
2022-10-07T02:10:00.913Z,15.27
2022-10-07T02:12:36.125Z,12.35
2022-10-07T02:15:10.904Z,16.35
2022-10-07T02:17:45.387Z,12.48
2022-10-07T02:20:16.483Z,14.65
2022-10-07T02:22:48.010Z,15.07
2022-10-07T02:25:20.899Z,12.82
2022-10-07T02:27:53.390Z,14.40
2022-10-07T02:30:25.980Z,14.25
2022-10-07T02:33:00.603Z,13.95
2022-10-07T02:35:36.911Z,14.57
2022-10-07T02:38:10.987Z,18.88
2022-10-07T02:40:47.660Z,18.50
2022-10-07T02:43:25.836Z,10.45
2022-10-07T02:46:02.727Z,14.27
2022-10-07T02:48:34.838Z,19.35
2022-10-07T02:51:08.804Z,14.30
2022-10-07T02:53:39.091Z,12.13
2022-10-07T02:56:09.125Z,15.18
2022-10-07T02:58:42.672Z,14.70
2022-10-07T03:01:19.815Z,14.75
2022-10-07T03:03:48.548Z,8.18
2022-10-07T03:06:20.835Z,17.60
2022-10-07T03:08:49.659Z,10.20
2022-10-07T03:11:18.274Z,14.30
2022-10-07T03:13:47.735Z,14.15
2022-10-07T03:16:18.381Z,16.52
2022-10-07T03:18:47.034Z,13.77
2022-10-07T03:21:16.585Z,15.07
2022-10-07T03:23:45.185Z,11.68
2022-10-07T03:26:13.577Z,14.80
2022-10-07T03:28:41.964Z,14.52
2022-10-07T03:31:12.345Z,20.38
2022-10-07T03:33:42.190Z,16.42
2022-10-07T03:36:11.321Z,14.73
2022-10-07T03:38:40.062Z,12.07
2022-10-07T03:41:09.778Z,15.02
2022-10-07T03:43:38.351Z,10.95
2022-10-07T03:46:07.486Z,18.88
2022-10-07T03:48:36.251Z,20.08
2022-10-07T03:51:06.796Z,17.10
2022-10-07T03:53:36.544Z,15.77
2022-10-07T03:56:05.128Z,15.82
2022-10-07T03:58:33.909Z,17.33
2022-10-07T04:01:06.667Z,13.40
2022-10-07T04:03:35.199Z,18.05
2022-10-07T04:06:04.124Z,12.05
2022-10-07T04:08:35.213Z,11.20
2022-10-07T04:11:05.402Z,13.05
2022-10-07T04:13:34.655Z,16.52
2022-10-07T04:16:09.238Z,15.50
2022-10-07T04:18:38.192Z,12.80
2022-10-07T04:21:07.775Z,17.60
2022-10-07T04:23:38.228Z,18.17
2022-10-07T04:26:09.399Z,17.20
2022-10-07T04:28:39.100Z,17.85
2022-10-07T04:31:09.883Z,15.77
2022-10-07T04:33:41.442Z,12.70
2022-10-07T04:36:13.039Z,15.63
2022-10-07T04:38:44.689Z,16.27
2022-10-07T04:41:14.095Z,9.43
2022-10-07T04:43:42.929Z,14.35
2022-10-07T04:46:14.294Z,12.70
2022-10-07T04:48:45.853Z,12.82
2022-10-07T04:51:16.046Z,14.07
2022-10-07T04:53:46.033Z,17.02
2022-10-07T04:56:14.770Z,14.85
2022-10-07T04:58:43.431Z,12.70
2022-10-07T05:01:12.172Z,17.65
2022-10-07T05:03:42.139Z,12.43
2022-10-07T05:06:11.201Z,18.40
2022-10-07T05:08:39.611Z,11.68
2022-10-07T05:11:09.788Z,17.42
2022-10-07T05:13:40.005Z,13.13
2022-10-07T05:16:09.937Z,12.90
2022-10-07T05:18:39.926Z,13.02
2022-10-07T05:21:10.490Z,16.27
2022-10-07T05:23:39.057Z,14.63
2022-10-07T05:26:09.378Z,17.92
2022-10-07T05:28:40.397Z,14.20
2022-10-07T05:31:10.673Z,18.00
2022-10-07T05:33:39.588Z,11.02
2022-10-07T05:36:11.612Z,15.05
2022-10-07T05:38:40.258Z,16.73
2022-10-07T05:41:12.642Z,15.20
2022-10-07T05:43:43.440Z,11.35
2022-10-07T05:46:14.361Z,14.75
2022-10-07T05:48:44.264Z,15.45
2022-10-07T05:51:14.254Z,12.27
2022-10-07T05:53:43.709Z,12.25
2022-10-07T05:56:18.969Z,10.00
2022-10-07T05:58:47.402Z,15.35
2022-10-07T06:01:18.115Z,11.45
2022-10-07T06:03:50.429Z,19.17
2022-10-07T06:06:19.823Z,11.98
2022-10-07T06:08:48.617Z,10.05
2022-10-07T06:11:37.152Z,11.05
2022-10-07T06:14:06.949Z,11.23
2022-10-07T06:16:35.366Z,13.60
2022-10-07T06:19:05.810Z,11.88
2022-10-07T06:21:35.656Z,9.40
2022-10-07T06:24:04.324Z,13.80
2022-10-07T06:26:34.335Z,16.63
2022-10-07T06:29:02.793Z,20.60
2022-10-07T06:31:31.085Z,10.65
2022-10-07T06:33:59.488Z,18.08
2022-10-07T06:36:28.295Z,13.48
2022-10-07T06:38:57.421Z,12.52
2022-10-07T06:41:26.079Z,13.55
2022-10-07T06:43:58.619Z,19.02
2022-10-07T06:46:27.287Z,10.98
2022-10-07T06:48:55.783Z,12.75
2022-10-07T06:51:25.079Z,10.82
2022-10-07T06:53:55.446Z,10.40
2022-10-07T06:56:31.933Z,13.05
2022-10-07T06:59:03.981Z,12.20
2022-10-07T07:01:38.696Z,15.55
2022-10-07T07:04:07.716Z,10.90
2022-10-07T07:06:37.628Z,10.85
2022-10-07T07:09:06.229Z,12.77
2022-10-07T07:11:44.117Z,14.57
2022-10-07T07:14:14.559Z,12.98
2022-10-07T07:16:43.332Z,11.57
2022-10-07T07:19:20.955Z,13.55
2022-10-07T07:22:13.679Z,14.45
2022-10-07T07:24:43.103Z,19.95
2022-10-07T07:27:14.634Z,17.23
2022-10-07T07:29:45.101Z,13.23
2022-10-07T07:32:13.608Z,13.82
2022-10-07T07:34:42.106Z,14.43
2022-10-07T07:37:10.461Z,16.27
2022-10-07T07:39:39.890Z,19.48
2022-10-07T07:42:09.568Z,14.27
2022-10-07T07:44:39.440Z,16.88
2022-10-07T07:47:09.590Z,18.45
2022-10-07T07:49:38.052Z,15.43
2022-10-07T07:52:07.636Z,11.95
2022-10-07T07:54:38.180Z,15.88
2022-10-07T07:57:06.745Z,15.07
2022-10-07T07:59:37.458Z,20.60
2022-10-07T08:02:07.480Z,20.48
2022-10-07T08:04:39.046Z,18.90
2022-10-07T08:07:08.046Z,17.58
2022-10-07T08:09:37.904Z,22.48
2022-10-07T08:12:06.551Z,17.25
2022-10-07T08:14:35.652Z,17.33
2022-10-07T08:17:04.174Z,19.60
2022-10-07T08:19:32.625Z,25.17
2022-10-07T08:22:02.601Z,26.73
2022-10-07T08:24:31.507Z,25.08
2022-10-07T08:27:00.190Z,19.35
2022-10-07T08:29:28.766Z,27.05
2022-10-07T08:31:58.601Z,27.65
2022-10-07T08:34:28.715Z,18.38
2022-10-07T08:36:57.746Z,22.70
2022-10-07T08:39:30.201Z,20.83
2022-10-07T08:42:08.805Z,27.15
2022-10-07T08:44:41.701Z,21.35
2022-10-07T08:47:22.588Z,23.80
2022-10-07T08:50:04.845Z,18.77
2022-10-07T08:52:44.578Z,21.58
2022-10-07T08:55:24.737Z,24.25
2022-10-07T08:58:27.185Z,30.35
2022-10-07T09:01:04.893Z,23.85
2022-10-07T09:03:43.971Z,22.48
2022-10-07T09:06:15.422Z,21.50
2022-10-07T09:08:48.174Z,27.60
2022-10-07T09:11:25.941Z,28.00
2022-10-07T09:14:01.201Z,20.13
2022-10-07T09:16:37.615Z,26.30
2022-10-07T09:19:07.850Z,26.75
2022-10-07T09:21:42.504Z,22.33
2022-10-07T09:24:20.994Z,22.50
2022-10-07T09:26:51.128Z,23.30
2022-10-07T09:29:23.625Z,18.75
2022-10-07T09:31:53.613Z,20.92
2022-10-07T09:34:25.905Z,25.45
2022-10-07T09:37:19.316Z,21.52
2022-10-07T09:39:50.728Z,19.00
2022-10-07T09:42:39.209Z,21.92
2022-10-07T09:45:23.192Z,19.40
2022-10-07T09:47:57.649Z,18.67
2022-10-07T09:50:38.356Z,24.67
2022-10-07T09:53:18.897Z,20.88
2022-10-07T09:55:48.199Z,18.08
2022-10-07T09:58:27.979Z,18.23
2022-10-07T10:00:58.462Z,18.60
2022-10-07T10:03:31.909Z,18.50
2022-10-07T10:06:01.699Z,19.08
2022-10-07T10:08:32.212Z,24.75
2022-10-07T10:11:02.897Z,21.05
2022-10-07T10:13:38.655Z,24.55
2022-10-07T10:16:29.165Z,20.63
2022-10-07T10:19:02.584Z,27.85
2022-10-07T10:21:36.342Z,25.50
2022-10-07T10:24:07.883Z,23.05
2022-10-07T10:26:56.653Z,24.35
2022-10-07T10:29:36.706Z,29.70
2022-10-07T10:32:29.104Z,23.20
2022-10-07T10:35:03.617Z,23.58
2022-10-07T10:37:48.455Z,29.30
2022-10-07T10:40:27.557Z,21.73
2022-10-07T10:43:08.873Z,30.02
2022-10-07T10:45:48.672Z,23.25
2022-10-07T10:48:36.597Z,27.40
2022-10-07T10:51:21.897Z,19.98
2022-10-07T10:53:58.603Z,21.83
2022-10-07T10:56:38.594Z,29.05
2022-10-07T10:59:24.551Z,19.92
2022-10-07T11:02:07.754Z,20.52
2022-10-07T11:04:47.443Z,19.60
2022-10-07T11:07:22.101Z,20.92
2022-10-07T11:09:55.387Z,19.00
2022-10-07T11:12:28.097Z,18.58
2022-10-07T11:15:02.650Z,14.68
2022-10-07T11:17:37.827Z,22.70
2022-10-07T11:20:19.057Z,24.25
2022-10-07T11:22:53.691Z,15.77
2022-10-07T11:25:30.681Z,15.50
2022-10-07T11:28:10.078Z,19.30
2022-10-07T11:30:49.633Z,20.35
2022-10-07T11:33:27.540Z,12.57
2022-10-07T11:36:01.023Z,17.83
2022-10-07T11:38:35.209Z,17.58
2022-10-07T11:41:12.927Z,17.05
2022-10-07T11:43:46.773Z,13.63
2022-10-07T11:46:23.566Z,14.25
2022-10-07T11:49:01.135Z,13.77
2022-10-07T11:51:35.971Z,12.90
2022-10-07T11:54:09.142Z,10.93
2022-10-07T11:56:45.995Z,10.40
2022-10-07T11:59:34.667Z,13.30
2022-10-07T12:02:04.285Z,11.82
2022-10-07T12:04:43.426Z,11.52
2022-10-07T12:07:38.603Z,7.05
2022-10-07T12:10:32.631Z,9.38
2022-10-07T12:13:38.190Z,6.43
2022-10-07T12:16:50.340Z,10.32
2022-10-07T12:19:23.904Z,10.80
2022-10-07T12:22:21.723Z,12.45
2022-10-07T12:25:35.515Z,7.45
2022-10-07T12:28:04.542Z,15.15
2022-10-07T12:30:42.815Z,16.75
2022-10-07T12:33:17.138Z,11.57
2022-10-07T12:35:54.373Z,9.98
2022-10-07T12:38:29.406Z,12.38
2022-10-07T12:41:14.227Z,16.35
2022-10-07T12:43:50.208Z,13.05
2022-10-07T12:46:22.201Z,16.23
2022-10-07T12:48:58.674Z,16.48
2022-10-07T12:51:31.346Z,13.45
2022-10-07T12:54:02.300Z,10.85
2022-10-07T12:56:32.433Z,12.88
2022-10-07T12:59:49.345Z,18.38
2022-10-07T13:02:47.160Z,11.25
2022-10-07T13:05:59.808Z,14.93
2022-10-07T13:09:23.835Z,11.77
2022-10-07T13:12:31.028Z,8.60
2022-10-07T13:15:12.424Z,12.23
2022-10-07T13:17:52.544Z,12.20
2022-10-07T13:20:36.929Z,10.70
2022-10-07T13:23:17.861Z,9.35
2022-10-07T13:25:49.874Z,12.23
2022-10-07T13:28:22.936Z,10.90
2022-10-07T13:30:54.727Z,12.90
2022-10-07T13:33:28.376Z,8.63
2022-10-07T13:36:17.253Z,12.65
2022-10-07T13:38:48.349Z,10.02
2022-10-07T13:41:23.316Z,12.80
2022-10-07T13:43:55.161Z,6.32
2022-10-07T13:46:29.055Z,7.95
2022-10-07T13:48:59.600Z,7.47
2022-10-07T13:51:36.007Z,10.40
2022-10-07T13:54:08.269Z,7.85
2022-10-07T13:56:42.192Z,11.05
2022-10-07T13:59:18.243Z,9.93
2022-10-07T14:01:51.522Z,7.97
2022-10-07T14:04:25.366Z,4.80
2022-10-07T14:06:58.840Z,6.03
2022-10-07T14:09:44.439Z,11.88
2022-10-07T14:12:17.084Z,9.77
2022-10-07T14:14:49.403Z,8.48
2022-10-07T14:17:32.367Z,10.20
2022-10-07T14:20:05.888Z,11.63
2022-10-07T14:22:41.432Z,13.85
2022-10-07T14:25:20.996Z,6.47
2022-10-07T14:27:58.122Z,8.70
2022-10-07T14:30:54.788Z,10.95
2022-10-07T14:33:54.171Z,7.80
2022-10-07T14:36:24.413Z,7.18
2022-10-07T14:38:59.042Z,8.43
2022-10-07T14:41:30.421Z,8.60
2022-10-07T14:44:00.729Z,5.82
2022-10-07T14:46:30.492Z,7.80
2022-10-07T14:49:00.914Z,6.15
2022-10-07T14:51:30.694Z,7.93
2022-10-07T14:54:03.905Z,6.32
2022-10-07T14:56:34.659Z,6.95
2022-10-07T14:59:03.857Z,5.22
2022-10-07T15:01:32.683Z,8.55
2022-10-07T15:04:02.850Z,8.55
2022-10-07T15:06:31.571Z,6.03
2022-10-07T15:09:01.100Z,6.10
2022-10-07T15:11:32.446Z,6.88
2022-10-07T15:14:01.733Z,7.43
2022-10-07T15:16:30.585Z,8.60
2022-10-07T15:18:59.613Z,8.68
2022-10-07T15:21:30.051Z,9.90
2022-10-07T15:23:59.172Z,11.13
2022-10-07T15:26:27.890Z,8.15
2022-10-07T15:28:58.131Z,11.20
2022-10-07T15:31:29.460Z,9.63
2022-10-07T15:33:59.439Z,10.60
2022-10-07T15:36:32.199Z,8.88
2022-10-07T15:39:02.482Z,13.23
2022-10-07T15:41:34.089Z,15.13
2022-10-07T15:44:04.696Z,12.35
2022-10-07T15:46:34.095Z,11.98
2022-10-07T15:49:05.461Z,14.68
2022-10-07T15:51:39.299Z,9.77
2022-10-07T15:54:09.062Z,8.98
2022-10-07T15:56:37.968Z,11.73
2022-10-07T15:59:06.634Z,8.48
2022-10-07T16:01:35.638Z,8.55
2022-10-07T16:04:05.835Z,12.25
2022-10-07T16:06:37.649Z,12.57
2022-10-07T16:09:07.965Z,14.05
2022-10-07T16:11:36.778Z,8.40
2022-10-07T16:14:05.595Z,7.88
2022-10-07T16:16:35.109Z,8.10
2022-10-07T16:19:05.050Z,9.40
2022-10-07T16:21:35.619Z,8.27
2022-10-07T16:24:08.319Z,6.65
2022-10-07T16:26:38.082Z,7.30
2022-10-07T16:29:26.674Z,8.82
2022-10-07T16:31:58.822Z,8.63
2022-10-07T16:34:29.399Z,6.97
2022-10-07T16:36:59.146Z,9.02
2022-10-07T16:39:29.219Z,5.80
2022-10-07T16:42:00.103Z,7.47
2022-10-07T16:44:29.823Z,7.57
2022-10-07T16:46:59.488Z,5.68
2022-10-07T16:49:30.863Z,8.07
2022-10-07T16:51:59.991Z,9.20
2022-10-07T16:54:32.309Z,8.93
2022-10-07T16:57:00.763Z,9.15
2022-10-07T16:59:31.188Z,7.18
2022-10-07T17:02:02.741Z,9.07
2022-10-07T17:04:32.722Z,7.60
2022-10-07T17:07:06.170Z,9.02
2022-10-07T17:09:36.028Z,6.75
2022-10-07T17:12:07.195Z,12.57
2022-10-07T17:14:37.498Z,8.93
2022-10-07T17:17:08.153Z,10.57
2022-10-07T17:19:36.921Z,12.50
2022-10-07T17:22:05.824Z,10.00
2022-10-07T17:24:37.330Z,14.52
2022-10-07T17:27:09.230Z,8.38
2022-10-07T17:29:38.618Z,9.70
2022-10-07T17:32:10.567Z,8.75
2022-10-07T17:34:41.964Z,10.25
2022-10-07T17:37:13.317Z,9.98
2022-10-07T17:39:43.647Z,8.52
2022-10-07T17:42:12.284Z,7.78
2022-10-07T17:44:40.830Z,9.57
2022-10-07T17:47:16.198Z,7.68
2022-10-07T17:49:44.925Z,9.82
2022-10-07T17:52:18.404Z,6.07
2022-10-07T17:54:50.572Z,8.32
2022-10-07T17:57:19.630Z,12.98
2022-10-07T17:59:48.634Z,8.90
2022-10-07T18:02:16.993Z,9.93
2022-10-07T18:04:46.471Z,13.82
2022-10-07T18:07:18.065Z,8.70
2022-10-07T18:09:51.642Z,8.00
2022-10-07T18:12:41.581Z,10.52
2022-10-07T18:15:20.965Z,12.38
2022-10-07T18:17:51.150Z,11.80
2022-10-07T18:20:20.012Z,11.27
2022-10-07T18:22:48.980Z,14.40
2022-10-07T18:25:19.057Z,9.73
2022-10-07T18:27:48.770Z,13.73
2022-10-07T18:30:17.776Z,10.38
2022-10-07T18:32:46.468Z,14.32
2022-10-07T18:35:15.080Z,12.80
2022-10-07T18:37:45.218Z,12.82
2022-10-07T18:40:15.174Z,13.50
2022-10-07T18:42:45.826Z,15.60
2022-10-07T18:45:15.942Z,13.05
2022-10-07T18:47:45.230Z,8.68
2022-10-07T18:50:14.793Z,9.57
2022-10-07T18:52:43.216Z,9.82
2022-10-07T18:55:12.966Z,12.48
2022-10-07T18:57:46.733Z,8.85
2022-10-07T19:00:18.288Z,11.38
2022-10-07T19:02:47.124Z,6.32
2022-10-07T19:08:34.542Z,11.93
2022-10-07T19:11:22.661Z,15.15
2022-10-07T19:13:56.695Z,14.45
2022-10-07T19:16:27.640Z,10.00
2022-10-07T19:18:59.746Z,11.75
2022-10-07T19:21:30.330Z,16.65
2022-10-07T19:24:01.709Z,9.60
2022-10-07T19:26:35.519Z,15.45
2022-10-07T19:29:07.153Z,13.38
2022-10-07T19:31:40.560Z,15.57
2022-10-07T19:34:12.321Z,18.67
2022-10-07T19:36:47.303Z,22.63
2022-10-07T19:39:18.235Z,21.40
2022-10-07T19:41:47.281Z,13.55
2022-10-07T19:44:17.601Z,15.70
2022-10-07T19:46:46.107Z,15.55
2022-10-07T19:49:14.991Z,14.15
2022-10-07T19:51:45.910Z,16.30
2022-10-07T19:54:14.736Z,15.30
2022-10-07T19:56:45.422Z,15.52
2022-10-07T19:59:16.092Z,13.45
2022-10-07T20:01:49.748Z,18.13
2022-10-07T20:04:21.037Z,22.88
2022-10-07T20:06:50.669Z,24.08
2022-10-07T20:09:20.388Z,20.02
2022-10-07T20:11:50.545Z,16.48
2022-10-07T20:14:19.778Z,16.50
2022-10-07T20:16:50.204Z,18.65
2022-10-07T20:19:19.913Z,19.75
2022-10-07T20:21:51.065Z,20.15
2022-10-07T20:24:19.459Z,23.13
2022-10-07T20:26:47.879Z,17.17
2022-10-07T20:29:18.604Z,14.88
2022-10-07T20:31:52.620Z,17.50
2022-10-07T20:34:21.336Z,15.43
2022-10-07T20:36:50.892Z,14.75
2022-10-07T20:39:38.988Z,15.73
2022-10-07T20:42:25.949Z,17.98
2022-10-07T20:44:55.823Z,14.70
2022-10-07T20:47:28.063Z,13.48
2022-10-07T20:50:01.092Z,13.85
2022-10-07T20:52:32.188Z,20.13
2022-10-07T20:55:00.968Z,16.45
2022-10-07T20:57:51.464Z,18.95
2022-10-07T21:00:35.095Z,14.85
2022-10-07T21:03:05.326Z,16.02
2022-10-07T21:05:38.634Z,14.05
2022-10-07T21:08:07.995Z,19.13
2022-10-07T21:10:36.655Z,19.50
2022-10-07T21:13:06.146Z,17.73
2022-10-07T21:15:38.805Z,17.85
2022-10-07T21:18:08.762Z,19.60
2022-10-07T21:20:37.511Z,18.65
2022-10-07T21:23:07.436Z,16.52
2022-10-07T21:25:36.401Z,14.25
2022-10-07T21:28:05.429Z,16.58
2022-10-07T21:30:33.886Z,14.90
2022-10-07T21:33:03.108Z,21.83
2022-10-07T21:35:34.449Z,20.25
2022-10-07T21:38:03.514Z,15.73
2022-10-07T21:40:33.090Z,19.85
2022-10-07T21:43:01.662Z,19.42
2022-10-07T21:45:31.716Z,22.23
2022-10-07T21:48:02.962Z,15.98
2022-10-07T21:50:34.208Z,15.48
2022-10-07T21:53:09.495Z,18.55
2022-10-07T21:55:38.293Z,18.08
2022-10-07T21:58:40.829Z,19.30
2022-10-07T22:01:14.915Z,18.85
2022-10-07T22:03:45.737Z,18.08
2022-10-07T22:06:19.041Z,16.60
2022-10-07T22:08:52.016Z,17.90
2022-10-07T22:11:24.133Z,17.95
2022-10-07T22:13:55.297Z,21.73
2022-10-07T22:16:25.305Z,17.27
2022-10-07T22:18:55.712Z,18.75
2022-10-07T22:21:27.747Z,24.13
2022-10-07T22:23:57.843Z,17.75
2022-10-07T22:26:39.106Z,14.80
2022-10-07T22:29:09.806Z,21.77
2022-10-07T22:31:41.011Z,21.88
2022-10-07T22:34:29.821Z,16.05
2022-10-07T22:37:01.512Z,18.73
2022-10-07T22:39:32.115Z,23.10
2022-10-07T22:42:04.067Z,21.25
2022-10-07T22:44:34.271Z,23.38
2022-10-07T22:47:03.043Z,20.70
2022-10-07T22:49:58.601Z,23.38
2022-10-07T22:52:42.099Z,23.08
2022-10-07T22:55:18.263Z,17.33
2022-10-07T22:57:46.912Z,23.05
2022-10-07T23:00:17.283Z,16.77
2022-10-07T23:02:46.426Z,23.05
2022-10-07T23:05:16.593Z,17.20
2022-10-07T23:07:47.369Z,22.23
2022-10-07T23:10:18.569Z,20.38
2022-10-07T23:12:48.626Z,22.13
2022-10-07T23:15:31.713Z,24.00
2022-10-07T23:18:01.809Z,20.58
2022-10-07T23:20:30.574Z,21.58
2022-10-07T23:23:02.515Z,19.48
2022-10-07T23:25:31.258Z,20.35
2022-10-07T23:28:00.818Z,18.55
2022-10-07T23:30:30.819Z,27.25
2022-10-07T23:32:59.582Z,22.67
2022-10-07T23:35:29.745Z,25.13
2022-10-07T23:37:58.995Z,21.35
2022-10-07T23:40:29.500Z,21.90
2022-10-07T23:42:57.946Z,22.88
2022-10-07T23:45:26.802Z,20.77
2022-10-07T23:48:02.280Z,26.45
2022-10-07T23:50:34.705Z,25.85
2022-10-07T23:53:03.312Z,28.80
2022-10-07T23:55:34.492Z,27.67
2022-10-07T23:58:03.660Z,24.58
